Flight Track Log - Related Links

Times and Time Zones

All times are in EDT time to prevent confusion due to time zone crossing. See the CSJ405 flight status page for this flight to view local times or setup timezone preferences in your user account.

Time Position Orientation Groundspeed Altitude Reporting Facility
EDT Latitude Longitude Course Direction KTS MPH feet Rate Location/Type
Fri 05:22:42 PM 42.7547 -73.8114 246° West 80 92 1,100  Level Boston Center
Fri 05:23:37 PM 42.7439 -73.8453 246° West 112 129 2,200 1,252 Climbing Boston Center
Fri 05:24:37 PM 42.7311 -73.8789 243° Southwest 109 125 3,500 1,276 Climbing Boston Center
Fri 05:25:44 PM 42.7139 -73.9153 237° Southwest 109 125 4,900 1,406 Climbing Boston Center
Fri 05:26:45 PM 42.6844 -73.9369 208° Southwest 116 133 6,500 1,475 Climbing Boston Center
Fri 05:27:46 PM 42.6531 -73.9503 197° South 112 129 7,900 744 Climbing Boston Center
Fri 05:28:46 PM 42.6172 -73.9750 207° Southwest 151 174 8,000 52 Climbing Boston Center
Fri 05:29:41 PM 42.5794 -73.9964 203° Southwest 175 201 8,000  Level Boston Center
Fri 05:30:40 PM 42.5353 -74.0208 202° Southwest 169 194 8,000 -50 Level Boston Center
Fri 05:31:40 PM 42.4956 -74.0394 199° South 169 194 7,900  Descending Boston Center
Fri 05:32:40 PM 42.4533 -74.0608 200° South 176 203 8,000 100 Climbing Boston Center
Fri 05:33:40 PM 42.4136 -74.0853 204° Southwest 170 196 8,100 50 Climbing Boston Center
Fri 05:34:40 PM 42.3736 -74.1067 202° Southwest 165 190 8,100  Level Boston Center
Fri 05:35:40 PM 42.3358 -74.1308 205° Southwest 153 176 8,100  Level Boston Center
Fri 05:36:40 PM 42.2978 -74.1553 205° Southwest 158 182 8,100  Level Boston Center
Fri 05:37:40 PM 42.2536 -74.1819 204° Southwest 158 182 8,100  Level Boston Center
Fri 05:38:40 PM 42.2181 -74.2006 201° Southwest 158 182 8,100  Level Boston Center
Fri 05:39:40 PM 42.1736 -74.2275 204° Southwest 158 182 8,100  Level Boston Center
Fri 05:40:40 PM 42.1400 -74.2572 213° Southwest 158 182 8,100 -50 Level Boston Center
Fri 05:41:40 PM 42.0978 -74.2922 212° Southwest 164 189 8,000 -300 Descending Boston Center
Fri 05:42:40 PM 42.0575 -74.3219 209° Southwest 170 196 7,500 -500 Descending Boston Center
Fri 05:43:40 PM 42.0092 -74.3542 206° Southwest 181 208 7,000 -200 Descending Boston Center
Fri 05:44:40 PM 41.9689 -74.3808 206° Southwest 181 208 7,100  Climbing Boston Center
Fri 05:45:40 PM 41.9225 -74.4183 211° Southwest 181 208 7,000 -50 Descending Boston Center
Fri 05:46:40 PM 41.8825 -74.4478 209° Southwest 181 208 7,000  Level Boston Center
Fri 05:47:40 PM 41.8358 -74.4797 207° Southwest 181 208 7,000  Level Boston Center
Fri 05:48:40 PM 41.7958 -74.5064 206° Southwest 176 203 7,000  Level Boston Center
Fri 05:49:52 PM 41.7494 -74.5353 205° Southwest 176 203 7,000  Level Boston Center
Fri 05:50:52 PM 41.6931 -74.5475 189° South 171 197 7,000  Level Boston Center
Fri 05:51:52 PM 41.6450 -74.5542 186° South 171 197 7,000 -350 Level Boston Center
Fri 05:52:52 PM 41.5928 -74.5608 185° South 179 206 6,300 -500 Descending Boston Center
Fri 05:53:52 PM 41.5425 -74.5703 188° South 186 214 6,000 -150 Descending Boston Center
Fri 05:54:52 PM 41.4944 -74.5825 191° South 181 208 6,000  Level Boston Center
Fri 05:55:52 PM 41.4461 -74.5919 188° South 181 208 6,000  Level Boston Center
Fri 05:56:52 PM 41.3961 -74.6014 188° South 181 208 6,000  Level Boston Center
Fri 05:59:09 PM 41.2833 -74.6333 192° South 178 205 6,000 -91 Level New York TRACON
Fri 06:00:09 PM 41.2500 -74.5833 132° Southeast 178 205 5,700 -650 Descending New York TRACON
Fri 06:01:09 PM 41.2000 -74.5500 153° Southeast 193 222 4,700 -900 Descending New York TRACON
Fri 06:02:09 PM 41.1667 -74.5167 143° Southeast 191 220 3,900 -600 Descending New York TRACON
Fri 06:03:09 PM 41.1167 -74.4833 153° Southeast 188 216 3,500 -400 Descending New York TRACON
Fri 06:04:09 PM 41.0667 -74.4333 143° Southeast 184 212 3,100 -400 Descending New York TRACON
Fri 06:05:09 PM 41.0333 -74.4000 143° Southeast 182 209 2,700 -300 Descending New York TRACON
Fri 06:06:09 PM 40.9833 -74.3667 153° Southeast 176 203 2,500 -250 Descending New York TRACON
Fri 06:07:09 PM 40.9500 -74.3500 159° South 178 205 2,200 -350 Descending New York TRACON
Fri 06:08:09 PM 40.9000 -74.3500 180° South 148 170 1,800 -450 Descending New York TRACON
Fri 06:09:09 PM 40.8667 -74.3333 159° South 121 139 1,300 -500 Descending New York TRACON

Login

Don't have an account? Register now (free) for customized features, flight alerts, and more!